Birmingham, AL (35298)

10:21 AM CDT on September 23, 2014 (GMT -0500)
UAB HHB | Change Station
CLOSE
Current Station
Personal Weather Station
Location: Birmingham, AL
Elevation: 617 ft
Nearby Weather Stations

Elev 617 ft 33.50 °N, 86.81 °W | Updated 58 seconds ago

Clear
Clear
71.3 °F
Feels Like 76 °F
N
5.0
Wind Variable Wind from NNE
Gusts 21.0 mph

Today
High -- | Low -- °F
--% Chance of Precip.
Yesterday
High -- | Low -- °F
Precip. -- in
6:36 AM 6:42 PM
Waning Crescent, 0% visible
Pressure 30.20 in
Visibility 10.0 miles
Clouds Few 25000 ft
Heat Index 76 °F
Dew Point 58 °F
Humidity 62%
Rainfall 0.00 in
Snow Depth Not available.
UV 4 out of 12
Pollen 7.10 out of 12
Ozone Good
PM2.5 Good
Flu Activity Not available.
METAR KBHM 231453Z 06011G20KT 10SM FEW250 22/12 A3022 RMK AO2 SLP226 T02170122 51010

More Conditions Fewer Conditions

Pressure 30.20 in
Visibility 10.0 miles
Clouds Few 25000 ft
Heat Index 76 °F
Dew Point 58 °F
Humidity 62%
Rainfall 0.00 in
Snow Depth Not available.
UV 4 out of 12
Pollen 7.10 out of 12
Ozone Good
PM2.5 Good
Flu Activity Not available.
METAR KBHM 231453Z 06011G20KT 10SM FEW250 22/12 A3022 RMK AO2 SLP226 T02170122 51010

More Conditions Fewer Conditions

10-Day Weather Forecast

Almanac

Astronomy

Sep. 23, 2014 Rise Set
Actual Time 6:36 AM CDT 6:42 PM CDT
Civil Twilight 6:11 AM CDT 7:07 PM CDT
Nautical Twilight 5:42 AM CDT 7:36 PM CDT
Astronomical Twilight 5:12 AM CDT 8:05 PM CDT
Moon 6:00 AM CDT 6:21 PM CDT
Length of Visible Light 12h 56m
Length of Day
12h 06m
Tomorrow will be 2m 4s shorter.
Waning Crescent, 0% of the Moon is Illuminated
Today
Waning Crescent
Sep 24
New
Oct 1
First Quarter
Oct 8
Full
Oct 15
Last Quarter

Today's Extremes

State Highs State Lows

Community

WunderPhotos

Upload Photos

1,755,725 photos uploaded!

Nearby

Air Quality

  Air Quality AQ Index Pollutant
Yesterday Good
PM10
Yesterday Good
OZONE
Current Good
PM2.5
Current Good
OZONE
Tuesday Good
OZONE
Tuesday Good
PM2.5

Snow Depth

Station Depth Elevation
No new snow has been reported.

Earthquake Activity

City Distance Mag. Time & Date
No recent earthquake activity has been reported nearby.
Minimum magnitude displayed is 2.5.

Coastal Water Temperatures

Place Temperature
No Stations Reporting

Nearby Weather Stations